createdAt,value
2019-02-12T00:02:26.071Z,9.95
2019-02-12T00:05:07.096Z,20.57
2019-02-12T00:07:47.392Z,11.90
2019-02-12T00:10:28.023Z,15.45
2019-02-12T00:13:08.978Z,9.28
2019-02-12T00:15:49.246Z,14.05
2019-02-12T00:18:29.643Z,20.55
2019-02-12T00:21:10.087Z,16.10
2019-02-12T00:23:50.651Z,10.03
2019-02-12T00:26:31.575Z,17.62
2019-02-12T00:29:12.730Z,14.65
2019-02-12T00:31:53.459Z,16.67
2019-02-12T00:34:34.234Z,19.15
2019-02-12T00:37:14.823Z,14.75
2019-02-12T00:39:55.376Z,16.42
2019-02-12T00:42:36.533Z,25.60
2019-02-12T00:45:17.047Z,12.47
2019-02-12T00:47:57.778Z,17.32
2019-02-12T00:50:38.155Z,14.40
2019-02-12T00:53:18.906Z,11.95
2019-02-12T00:55:59.295Z,16.42
2019-02-12T00:58:40.343Z,14.68
2019-02-12T01:01:09.215Z,14.87
2019-02-12T01:03:38.083Z,16.65
2019-02-12T01:06:06.659Z,13.88
2019-02-12T01:08:35.586Z,22.50
2019-02-12T01:11:04.164Z,14.05
2019-02-12T01:13:33.366Z,14.40
2019-02-12T01:16:02.256Z,12.93
2019-02-12T01:18:31.126Z,17.95
2019-02-12T01:21:00.335Z,15.88
2019-02-12T01:23:29.189Z,18.20
2019-02-12T01:25:57.799Z,15.23
2019-02-12T01:28:26.382Z,20.45
2019-02-12T01:30:55.294Z,17.82
2019-02-12T01:33:23.894Z,22.50
2019-02-12T01:35:52.874Z,25.35
2019-02-12T01:38:21.754Z,15.50
2019-02-12T01:40:50.659Z,13.60
2019-02-12T01:43:19.514Z,11.50
2019-02-12T01:45:48.117Z,17.50
2019-02-12T01:48:16.686Z,17.05
2019-02-12T01:50:45.611Z,12.82
2019-02-12T01:53:14.390Z,18.60
2019-02-12T01:55:42.966Z,16.20
2019-02-12T01:58:11.854Z,9.55
2019-02-12T02:00:40.395Z,15.43
2019-02-12T02:03:09.047Z,12.35
2019-02-12T02:05:37.882Z,19.73
2019-02-12T02:08:06.503Z,18.23
2019-02-12T02:10:35.087Z,15.43
2019-02-12T02:13:03.695Z,12.50
2019-02-12T02:15:32.249Z,15.28
2019-02-12T02:18:00.827Z,11.83
2019-02-12T02:20:29.422Z,10.35
2019-02-12T02:22:57.987Z,13.83
2019-02-12T02:25:26.618Z,19.40
2019-02-12T02:27:55.262Z,17.32
2019-02-12T02:30:24.503Z,13.58
2019-02-12T02:32:53.036Z,12.90
2019-02-12T02:35:22.263Z,14.18
2019-02-12T02:37:50.828Z,15.93
2019-02-12T02:40:19.458Z,18.55
2019-02-12T02:42:48.079Z,17.87
2019-02-12T02:45:16.683Z,10.25
2019-02-12T02:47:45.491Z,20.72
2019-02-12T02:50:14.278Z,15.80
2019-02-12T02:52:42.827Z,20.57
2019-02-12T02:55:11.475Z,15.48
2019-02-12T02:57:40.098Z,14.78
2019-02-12T03:00:09.438Z,20.70
2019-02-12T03:02:38.011Z,15.65
2019-02-12T03:05:07.958Z,20.17
2019-02-12T03:07:36.930Z,16.52
2019-02-12T03:10:05.669Z,19.85
2019-02-12T03:12:34.190Z,16.45
2019-02-12T03:15:02.742Z,18.55
2019-02-12T03:17:31.336Z,18.52
2019-02-12T03:20:00.366Z,18.82
2019-02-12T03:22:29.128Z,17.98
2019-02-12T03:24:58.030Z,17.42
2019-02-12T03:27:26.930Z,20.37
2019-02-12T03:29:56.511Z,18.05
2019-02-12T03:32:25.111Z,14.75
2019-02-12T03:34:53.667Z,13.80
2019-02-12T03:37:22.595Z,16.48
2019-02-12T03:39:52.174Z,11.40
2019-02-12T03:42:20.764Z,12.20
2019-02-12T03:44:49.346Z,19.25
2019-02-12T03:47:17.922Z,14.07
2019-02-12T03:49:46.498Z,14.80
2019-02-12T03:52:15.735Z,14.43
2019-02-12T03:54:44.603Z,12.53
2019-02-12T03:57:13.183Z,20.35
2019-02-12T03:59:41.775Z,21.57
2019-02-12T04:02:10.895Z,17.95
2019-02-12T04:04:39.494Z,26.48
2019-02-12T04:07:08.334Z,13.60
2019-02-12T04:09:36.916Z,15.35
2019-02-12T04:12:05.510Z,21.33
2019-02-12T04:14:34.327Z,18.15
2019-02-12T04:17:02.875Z,17.73
2019-02-12T04:19:31.447Z,17.80
2019-02-12T04:22:00.281Z,12.03
2019-02-12T04:24:28.872Z,13.18
2019-02-12T04:26:57.420Z,12.78
2019-02-12T04:29:25.988Z,19.05
2019-02-12T04:31:54.819Z,18.20
2019-02-12T04:34:23.367Z,15.53
2019-02-12T04:36:51.959Z,14.30
2019-02-12T04:39:20.880Z,13.60
2019-02-12T04:41:49.974Z,16.12
2019-02-12T04:44:18.838Z,9.43
2019-02-12T04:46:47.436Z,17.42
2019-02-12T04:49:16.002Z,13.62
2019-02-12T04:51:44.580Z,8.53
2019-02-12T04:54:13.190Z,12.05
2019-02-12T04:56:42.092Z,12.40
2019-02-12T04:59:11.290Z,17.73
2019-02-12T05:01:39.849Z,17.52
2019-02-12T05:04:08.459Z,16.70
2019-02-12T05:06:37.002Z,18.60
2019-02-12T05:09:23.339Z,18.85
2019-02-12T05:11:57.303Z,13.50
2019-02-12T05:14:25.922Z,17.55
2019-02-12T05:16:54.840Z,16.65
2019-02-12T05:19:23.367Z,20.82
2019-02-12T05:21:51.957Z,14.05
2019-02-12T05:24:20.548Z,16.25
2019-02-12T05:26:49.122Z,23.45
2019-02-12T05:29:18.483Z,9.48
2019-02-12T05:31:47.706Z,13.48
2019-02-12T05:34:16.313Z,14.43
2019-02-12T05:36:44.903Z,13.08
2019-02-12T05:39:13.486Z,18.15
2019-02-12T05:41:42.375Z,11.15
2019-02-12T05:44:10.982Z,14.00
2019-02-12T05:46:39.541Z,13.10
2019-02-12T05:49:08.124Z,15.38
2019-02-12T05:51:37.355Z,9.75
2019-02-12T05:54:06.554Z,16.95
2019-02-12T05:56:35.115Z,14.00
2019-02-12T05:59:03.682Z,18.52
2019-02-12T06:01:32.515Z,11.60
2019-02-12T06:04:01.333Z,15.80
2019-02-12T06:06:29.962Z,14.63
2019-02-12T06:08:58.866Z,14.05
2019-02-12T06:11:27.667Z,19.05
2019-02-12T06:13:56.191Z,21.35
2019-02-12T06:16:24.810Z,23.02
2019-02-12T06:18:53.383Z,11.00
2019-02-12T06:21:21.970Z,11.48
2019-02-12T06:23:50.548Z,13.15
2019-02-12T06:26:19.144Z,15.03
2019-02-12T06:28:47.706Z,13.58
2019-02-12T06:31:16.645Z,13.80
2019-02-12T06:33:45.214Z,11.60
2019-02-12T06:36:14.018Z,10.20
2019-02-12T06:38:43.112Z,11.90
2019-02-12T06:41:11.915Z,13.85
2019-02-12T06:43:40.459Z,18.40
2019-02-12T06:46:09.379Z,15.35
2019-02-12T06:48:37.942Z,11.93
2019-02-12T06:51:06.748Z,12.50
2019-02-12T06:53:35.306Z,14.80
2019-02-12T06:56:03.881Z,13.32
2019-02-12T06:58:32.815Z,12.85
2019-02-12T07:01:01.344Z,12.55
2019-02-12T07:03:39.973Z,8.40
2019-02-12T07:06:15.922Z,11.33
2019-02-12T07:08:51.990Z,6.28
2019-02-12T07:11:48.782Z,11.05
2019-02-12T07:14:30.899Z,11.90
2019-02-12T07:17:34.896Z,9.38
2019-02-12T07:20:31.486Z,12.63
2019-02-12T07:23:21.290Z,17.00
2019-02-12T07:26:26.101Z,21.33
2019-02-12T07:29:21.722Z,10.53
2019-02-12T07:32:18.740Z,10.53
2019-02-12T07:35:25.942Z,14.93
2019-02-12T07:38:02.703Z,18.07
2019-02-12T07:41:06.342Z,20.75
2019-02-12T07:44:14.866Z,18.20
2019-02-12T07:47:11.366Z,17.57
2019-02-12T07:50:26.241Z,14.70
2019-02-12T07:53:31.177Z,15.18
2019-02-12T07:56:12.386Z,12.95
2019-02-12T07:59:16.511Z,8.38
2019-02-12T08:02:29.371Z,16.48
2019-02-12T08:05:37.154Z,19.48
2019-02-12T08:08:53.202Z,11.50
2019-02-12T08:11:39.911Z,14.83
2019-02-12T08:14:39.034Z,18.80
2019-02-12T08:17:24.717Z,12.43
2019-02-12T08:20:19.746Z,15.05
2019-02-12T08:23:27.621Z,17.25
2019-02-12T08:26:21.881Z,25.08
2019-02-12T08:29:09.627Z,14.65
2019-02-12T08:31:52.778Z,14.53
2019-02-12T08:34:39.275Z,15.15
2019-02-12T08:37:51.216Z,17.15
2019-02-12T08:41:12.507Z,15.68
2019-02-12T08:43:55.002Z,9.28
2019-02-12T08:47:19.606Z,16.40
2019-02-12T08:50:29.754Z,11.60
2019-02-12T08:53:33.845Z,15.48
2019-02-12T08:56:45.838Z,22.10
2019-02-12T08:59:38.174Z,20.17
2019-02-12T09:02:31.891Z,15.53
2019-02-12T09:05:43.851Z,18.60
2019-02-12T09:08:29.775Z,19.00
2019-02-12T09:11:31.750Z,13.85
2019-02-12T09:14:14.031Z,13.30
2019-02-12T09:17:26.263Z,18.07
2019-02-12T09:20:25.971Z,19.45
2019-02-12T09:23:27.743Z,16.82
2019-02-12T09:26:22.434Z,13.38
2019-02-12T09:29:06.879Z,10.08
2019-02-12T09:32:15.306Z,16.87
2019-02-12T09:35:16.559Z,16.52
2019-02-12T09:38:20.265Z,13.48
2019-02-12T09:41:31.546Z,13.03
2019-02-12T09:44:32.947Z,11.38
2019-02-12T09:47:23.471Z,17.40
2019-02-12T09:50:40.726Z,16.20
2019-02-12T09:53:28.323Z,13.10
2019-02-12T09:56:30.847Z,13.88
2019-02-12T09:59:31.659Z,9.70
2019-02-12T10:02:23.470Z,11.35
2019-02-12T10:05:12.358Z,13.75
2019-02-12T10:08:20.930Z,19.00
2019-02-12T10:11:27.119Z,17.37
2019-02-12T10:14:07.315Z,11.85
2019-02-12T10:17:07.742Z,11.05
2019-02-12T10:19:49.845Z,15.13
2019-02-12T10:22:55.967Z,13.68
2019-02-12T10:25:31.663Z,10.35
2019-02-12T10:28:26.267Z,10.00
2019-02-12T10:31:05.546Z,16.23
2019-02-12T10:33:34.128Z,13.15
2019-02-12T10:36:02.647Z,12.15
2019-02-12T10:38:31.279Z,11.75
2019-02-12T10:41:00.135Z,17.42
2019-02-12T10:43:28.974Z,11.05
2019-02-12T10:45:57.531Z,15.32
2019-02-12T10:48:26.456Z,17.02
2019-02-12T10:50:55.010Z,12.25
2019-02-12T10:53:23.823Z,13.03
2019-02-12T10:55:52.720Z,10.18
2019-02-12T10:58:21.267Z,16.07
2019-02-12T11:00:51.109Z,12.20
2019-02-12T11:03:19.632Z,14.28
2019-02-12T11:05:48.482Z,12.10
2019-02-12T11:08:17.371Z,15.45
2019-02-12T11:10:45.899Z,14.23
2019-02-12T11:13:14.418Z,12.65
2019-02-12T11:15:43.235Z,28.02
2019-02-12T11:18:11.752Z,11.48
2019-02-12T11:20:40.609Z,19.15
2019-02-12T11:23:10.923Z,15.00
2019-02-12T11:25:40.023Z,11.25
2019-02-12T11:28:08.577Z,14.47
2019-02-12T11:30:37.806Z,12.40
2019-02-12T11:33:06.662Z,16.02
2019-02-12T11:35:36.918Z,10.88
2019-02-12T11:38:05.571Z,10.28
2019-02-12T11:40:34.147Z,11.90
2019-02-12T11:43:03.230Z,13.15
2019-02-12T11:45:32.167Z,17.60
2019-02-12T11:48:01.277Z,10.05
2019-02-12T11:50:29.976Z,9.33
2019-02-12T11:52:58.507Z,14.90
2019-02-12T11:55:27.091Z,11.75
2019-02-12T11:57:55.611Z,6.83
2019-02-12T12:00:31.682Z,10.50
2019-02-12T12:03:00.286Z,11.75
2019-02-12T12:05:29.562Z,7.62
2019-02-12T12:07:58.490Z,11.45
2019-02-12T12:10:27.088Z,7.90
2019-02-12T12:12:56.023Z,10.58
2019-02-12T12:15:24.811Z,9.43
2019-02-12T12:17:53.359Z,12.23
2019-02-12T12:20:21.934Z,18.17
2019-02-12T12:22:50.910Z,11.95
2019-02-12T12:25:19.854Z,12.65
2019-02-12T12:27:48.379Z,6.92
2019-02-12T12:30:19.034Z,10.80
2019-02-12T12:32:47.726Z,11.63
2019-02-12T12:35:16.550Z,8.05
2019-02-12T12:37:45.070Z,18.50
2019-02-12T12:40:13.688Z,8.85
2019-02-12T12:42:42.202Z,14.00
2019-02-12T12:45:11.302Z,6.47
2019-02-12T12:47:40.132Z,9.55
2019-02-12T12:50:09.810Z,12.15
2019-02-12T12:52:38.586Z,11.25
2019-02-12T12:55:07.126Z,12.88
2019-02-12T12:57:41.624Z,9.30
2019-02-12T13:00:07.271Z,12.47
2019-02-12T13:02:55.434Z,8.13
2019-02-12T13:05:36.182Z,8.18
2019-02-12T13:08:16.444Z,14.47
2019-02-12T13:10:57.168Z,8.38
2019-02-12T13:13:37.819Z,6.28
2019-02-12T13:16:18.703Z,10.72
2019-02-12T13:18:59.334Z,10.00
2019-02-12T13:21:39.934Z,8.50
2019-02-12T13:24:20.842Z,8.80
2019-02-12T13:27:01.676Z,11.28
2019-02-12T13:29:42.058Z,8.10
2019-02-12T13:32:22.863Z,14.10
2019-02-12T13:35:03.386Z,7.22
2019-02-12T13:37:43.966Z,6.67
2019-02-12T13:40:24.551Z,5.45
2019-02-12T13:43:05.227Z,8.50
2019-02-12T13:45:46.259Z,8.65
2019-02-12T13:48:28.133Z,13.80
2019-02-12T13:51:09.147Z,9.73
2019-02-12T13:53:50.454Z,6.22
2019-02-12T13:56:31.131Z,9.23
2019-02-12T13:59:12.254Z,10.08
2019-02-12T14:01:53.271Z,13.28
2019-02-12T14:04:36.819Z,9.23
2019-02-12T14:07:18.043Z,9.88
2019-02-12T14:09:58.967Z,7.42
2019-02-12T14:15:22.266Z,9.78
2019-02-12T14:18:02.615Z,10.45
2019-02-12T14:20:43.345Z,8.50
2019-02-12T14:23:23.778Z,10.95
2019-02-12T14:26:04.435Z,6.45
2019-02-12T14:28:45.099Z,11.03
2019-02-12T14:31:25.992Z,10.45
2019-02-12T14:34:06.282Z,4.37
2019-02-12T14:36:46.835Z,9.60
2019-02-12T14:39:27.547Z,8.63
2019-02-12T14:42:08.126Z,7.30
2019-02-12T14:47:31.495Z,4.83
2019-02-12T14:53:01.615Z,10.05
2019-02-12T14:58:32.307Z,6.75
2019-02-12T15:01:16.612Z,7.80
2019-02-12T15:04:01.835Z,18.67
2019-02-12T15:31:49.474Z,5.85
2019-02-12T15:34:30.134Z,5.22
2019-02-12T15:37:11.270Z,3.35
2019-02-12T15:39:51.915Z,3.75
2019-02-12T15:42:32.480Z,3.75
2019-02-12T15:45:13.212Z,4.53
2019-02-12T15:47:53.532Z,7.58
2019-02-12T15:50:34.039Z,8.05
2019-02-12T15:53:14.814Z,5.55
2019-02-12T15:55:55.652Z,5.58
2019-02-12T15:58:35.999Z,5.42
2019-02-12T16:01:16.550Z,5.42
2019-02-12T16:03:58.275Z,6.97
2019-02-12T16:06:40.290Z,8.50
2019-02-12T16:09:22.815Z,6.42
2019-02-12T16:12:04.063Z,15.00
2019-02-12T16:14:46.202Z,3.65
2019-02-12T16:17:26.653Z,6.42
2019-02-12T16:20:07.689Z,7.05
2019-02-12T16:22:48.064Z,5.37
2019-02-12T16:25:28.955Z,6.25
2019-02-12T16:28:09.235Z,12.13
2019-02-12T16:30:49.779Z,9.70
2019-02-12T16:33:30.387Z,8.38
2019-02-12T16:36:11.053Z,4.55
2019-02-12T16:38:52.420Z,3.00
2019-02-12T16:41:33.524Z,5.10
2019-02-12T16:44:14.034Z,5.33
2019-02-12T16:46:54.728Z,7.25
2019-02-12T16:49:35.215Z,4.70
2019-02-12T16:52:20.924Z,5.95
2019-02-12T16:54:58.631Z,1.30
2019-02-12T16:57:38.992Z,4.28
2019-02-12T17:00:19.602Z,3.55
2019-02-12T17:03:00.050Z,3.85
2019-02-12T17:05:40.529Z,3.55
2019-02-12T17:08:20.971Z,7.42
2019-02-12T17:11:01.351Z,5.10
2019-02-12T17:13:42.187Z,3.37
2019-02-12T17:16:22.743Z,9.15
2019-02-12T17:19:03.503Z,2.65
2019-02-12T17:21:44.670Z,3.83
2019-02-12T17:24:25.506Z,2.55
2019-02-12T17:27:06.223Z,3.80
2019-02-12T17:29:47.298Z,5.75
2019-02-12T17:32:26.314Z,2.58
2019-02-12T17:35:14.435Z,5.33
2019-02-12T17:38:02.280Z,3.58
2019-02-12T17:40:50.413Z,7.83
2019-02-12T17:43:38.259Z,4.55
2019-02-12T17:46:26.094Z,3.52
2019-02-12T17:49:14.182Z,4.22
2019-02-12T17:52:02.031Z,3.50
2019-02-12T17:54:50.581Z,8.13
2019-02-12T17:57:38.423Z,5.28
2019-02-12T18:03:36.323Z,7.45
2019-02-12T18:06:24.154Z,5.15
2019-02-12T18:09:12.463Z,5.05
2019-02-12T18:11:53.584Z,6.95
2019-02-12T18:14:34.048Z,2.87
2019-02-12T18:17:15.307Z,5.05
2019-02-12T18:19:56.067Z,6.67
2019-02-12T18:22:36.688Z,2.02
2019-02-12T18:25:17.197Z,2.60
2019-02-12T18:27:57.666Z,8.18
2019-02-12T18:30:37.975Z,2.55
2019-02-12T18:33:18.469Z,6.65
2019-02-12T18:35:59.335Z,5.03
2019-02-12T18:38:39.905Z,9.03
2019-02-12T18:41:20.742Z,5.87
2019-02-12T18:44:02.022Z,4.25
2019-02-12T18:49:24.596Z,4.10
2019-02-12T18:54:48.348Z,5.70
2019-02-12T19:00:14.835Z,6.65
2019-02-12T19:02:43.466Z,2.90
2019-02-12T19:05:12.339Z,5.45
2019-02-12T19:07:42.736Z,5.85
2019-02-12T19:10:11.826Z,7.15
2019-02-12T19:12:40.466Z,3.47
2019-02-12T19:15:11.006Z,9.10
2019-02-12T19:17:39.694Z,9.33
2019-02-12T19:20:09.963Z,7.58
2019-02-12T19:22:38.581Z,14.30
2019-02-12T19:25:07.935Z,13.18
2019-02-12T19:27:36.603Z,21.07
2019-02-12T19:30:05.510Z,20.77
2019-02-12T19:32:34.118Z,23.38
2019-02-12T19:35:02.955Z,17.52
2019-02-12T19:37:31.779Z,9.88
2019-02-12T19:40:00.735Z,17.60
2019-02-12T19:42:29.275Z,14.03
2019-02-12T19:44:57.871Z,18.75
2019-02-12T19:47:26.590Z,14.18
2019-02-12T19:49:55.212Z,10.98
2019-02-12T19:52:24.466Z,20.02
2019-02-12T19:54:53.031Z,15.72
2019-02-12T19:57:21.594Z,16.07
2019-02-12T19:59:50.194Z,19.77
2019-02-12T20:02:19.115Z,15.50
2019-02-12T20:04:47.985Z,17.05
2019-02-12T20:07:16.546Z,12.50
2019-02-12T20:09:45.140Z,15.28
2019-02-12T20:12:13.737Z,17.42
2019-02-12T20:14:42.313Z,14.07
2019-02-12T20:17:10.892Z,13.95
2019-02-12T20:19:39.857Z,18.62
2019-02-12T20:22:09.310Z,12.28
2019-02-12T20:24:37.870Z,12.18
2019-02-12T20:27:07.001Z,14.60
2019-02-12T20:29:35.760Z,12.60
2019-02-12T20:32:04.330Z,12.82
2019-02-12T20:34:33.158Z,10.93
2019-02-12T20:37:01.715Z,12.07
2019-02-12T20:39:30.290Z,9.93
2019-02-12T20:41:59.268Z,11.80
2019-02-12T20:44:27.866Z,12.98
2019-02-12T20:46:56.455Z,9.48
2019-02-12T20:49:25.043Z,11.88
2019-02-12T20:51:54.278Z,13.75
2019-02-12T20:54:23.357Z,16.85
2019-02-12T20:56:51.923Z,15.55
2019-02-12T20:59:21.155Z,24.47
2019-02-12T21:01:49.983Z,12.20
2019-02-12T21:04:18.830Z,16.37
2019-02-12T21:06:47.932Z,12.73
2019-02-12T21:09:16.768Z,15.85
2019-02-12T21:11:45.931Z,14.75
2019-02-12T21:14:14.490Z,14.47
2019-02-12T21:16:43.046Z,14.47
2019-02-12T21:19:11.871Z,15.30
2019-02-12T21:21:40.758Z,18.20
2019-02-12T21:24:09.304Z,13.62
2019-02-12T21:26:37.890Z,9.70
2019-02-12T21:29:06.479Z,11.55
2019-02-12T21:31:35.375Z,11.00
2019-02-12T21:34:04.334Z,12.65
2019-02-12T21:36:32.953Z,12.58
2019-02-12T21:39:01.527Z,10.45
2019-02-12T21:41:30.124Z,8.48
2019-02-12T21:43:58.694Z,11.45
2019-02-12T21:46:27.614Z,10.70
2019-02-12T21:48:56.271Z,12.95
2019-02-12T21:51:24.866Z,13.38
2019-02-12T21:53:53.726Z,10.23
2019-02-12T21:56:22.329Z,8.68
2019-02-12T21:58:51.155Z,9.15
2019-02-12T22:01:19.695Z,7.58
2019-02-12T22:03:48.223Z,12.00
2019-02-12T22:06:16.758Z,8.55
2019-02-12T22:08:45.744Z,12.47
2019-02-12T22:11:14.658Z,10.15
2019-02-12T22:13:43.582Z,12.03
2019-02-12T22:16:12.667Z,6.50
2019-02-12T22:18:41.229Z,12.15
2019-02-12T22:21:10.194Z,7.58
2019-02-12T22:23:38.824Z,10.48
2019-02-12T22:26:07.387Z,13.18
2019-02-12T22:28:35.972Z,7.30
2019-02-12T22:31:04.890Z,12.28
2019-02-12T22:33:33.762Z,11.53
2019-02-12T22:36:02.342Z,13.45
2019-02-12T22:38:30.936Z,11.63
2019-02-12T22:40:59.504Z,16.67
2019-02-12T22:43:28.094Z,14.25
2019-02-12T22:45:56.670Z,12.43
2019-02-12T22:48:25.269Z,5.92
2019-02-12T22:50:53.842Z,11.55
2019-02-12T22:53:22.770Z,11.25
2019-02-12T22:55:51.319Z,12.05
2019-02-12T22:58:19.897Z,9.90
2019-02-12T23:00:59.674Z,8.33
2019-02-12T23:03:28.205Z,9.18
2019-02-12T23:05:57.458Z,12.98
2019-02-12T23:08:26.027Z,10.25
2019-02-12T23:10:57.434Z,10.70
2019-02-12T23:13:26.393Z,10.63
2019-02-12T23:15:55.276Z,9.63
2019-02-12T23:18:24.375Z,9.75
2019-02-12T23:20:52.926Z,10.95
2019-02-12T23:23:21.507Z,7.58
2019-02-12T23:25:50.093Z,10.75
2019-02-12T23:28:19.086Z,10.68
2019-02-12T23:30:48.930Z,11.22
2019-02-12T23:33:17.799Z,8.60
2019-02-12T23:35:46.668Z,11.05
2019-02-12T23:38:15.606Z,14.50
2019-02-12T23:40:44.487Z,8.70
2019-02-12T23:43:13.390Z,13.43
2019-02-12T23:45:41.925Z,8.08
2019-02-12T23:48:10.759Z,7.30
2019-02-12T23:50:39.648Z,9.83
2019-02-12T23:53:08.203Z,7.35
2019-02-12T23:55:36.784Z,7.72
2019-02-12T23:58:06.221Z,7.92
